Time;durP1;ratioP1;P1;durP2;ratioP2;P2;SDS_P1;SDS_P2;PMS_P1;PMS_P2;Temp;Humidity;BMP_temperature;BMP_pressure;BME280_temperature;BME280_humidity;BME280_pressure;Samples;Min_cycle;Max_cycle;Signal;HPM_P1;HPM_P2
2022/09/07 00:00:15;;;;;;;5.50;3.10;;;;;;;8.13;62.72;101097.09;89374;1262;97832;-59
2022/09/07 00:02:46;;;;;;;5.30;2.70;;;;;;;8.08;62.62;101094.02;89395;1260;88850;-58
2022/09/07 00:05:00;;;;;;;5.80;2.80;;;;;;;8.04;62.95;101093.02;89376;1260;95440;-59
2022/09/07 00:07:13;;;;;;;6.00;2.80;;;;;;;7.99;62.76;101087.09;89367;1261;79697;-57
2022/09/07 00:09:27;;;;;;;4.70;2.90;;;;;;;7.98;62.97;101086.52;89399;1261;82607;-58
2022/09/07 00:11:39;;;;;;;7.60;3.00;;;;;;;7.96;63.07;101082.38;89234;1262;96828;-59
2022/09/07 00:13:54;;;;;;;4.70;2.90;;;;;;;7.99;63.06;101077.37;89355;1260;88615;-60
2022/09/07 00:16:12;;;;;;;6.10;3.10;;;;;;;8.01;63.26;101075.00;89401;1261;93288;-58
2022/09/07 00:18:27;;;;;;;5.40;2.90;;;;;;;7.99;63.45;101076.86;89403;1260;79585;-58
2022/09/07 00:20:36;;;;;;;4.30;2.70;;;;;;;7.99;63.25;101077.01;89424;1260;82242;-57
2022/09/07 00:22:49;;;;;;;4.90;3.00;;;;;;;8.04;63.15;101075.77;89412;1261;98819;-57
2022/09/07 00:25:02;;;;;;;6.10;3.10;;;;;;;8.08;63.09;101072.47;89429;1260;88301;-57
2022/09/07 00:27:14;;;;;;;6.30;3.90;;;;;;;8.11;63.03;101072.71;89382;1260;94736;-61
2022/09/07 00:29:31;;;;;;;7.90;3.60;;;;;;;8.11;62.85;101069.66;89397;1261;79429;-61
2022/09/07 00:31:45;;;;;;;6.30;3.70;;;;;;;8.07;62.96;101070.93;89256;1262;81255;-59
2022/09/07 00:33:57;;;;;;;5.10;3.00;;;;;;;8.01;63.07;101068.00;89362;1260;97344;-60
2022/09/07 00:36:10;;;;;;;4.60;3.20;;;;;;;7.98;63.02;101070.11;89405;1262;88332;-58
2022/09/07 00:38:25;;;;;;;6.10;3.50;;;;;;;8.01;63.01;101066.73;89356;1261;92885;-57
2022/09/07 00:40:40;;;;;;;4.80;3.10;;;;;;;8.03;62.71;101065.33;89381;1260;79603;-57
2022/09/07 00:42:54;;;;;;;5.30;2.90;;;;;;;8.02;62.74;101066.70;89394;1261;82367;-59
2022/09/07 00:45:15;;;;;;;5.40;3.50;;;;;;;8.00;62.70;101065.65;89378;1260;98434;-59
2022/09/07 00:47:36;;;;;;;7.20;3.20;;;;;;;7.97;62.66;101066.26;89400;1261;88310;-62
2022/09/07 00:50:00;;;;;;;6.10;3.40;;;;;;;7.95;62.74;101066.75;89366;1260;94749;-61
2022/09/07 00:52:13;;;;;;;6.60;3.00;;;;;;;7.93;62.79;101066.70;89351;1262;78749;-57
2022/09/07 00:54:38;;;;;;;5.10;2.70;;;;;;;7.91;62.82;101071.19;89407;1260;82996;-57
2022/09/07 00:56:51;;;;;;;5.80;3.10;;;;;;;7.87;62.90;101064.63;89383;1260;97005;-59
2022/09/07 00:59:03;;;;;;;4.70;2.80;;;;;;;7.87;62.81;101064.48;89430;1261;87595;-59
2022/09/07 01:01:13;;;;;;;7.60;3.40;;;;;;;7.86;62.97;101064.03;89439;1261;94268;-61
2022/09/07 01:03:29;;;;;;;9.30;3.20;;;;;;;7.88;62.84;101063.65;89398;1260;81310;-61
2022/09/07 01:05:46;;;;;;;7.40;3.00;;;;;;;7.92;63.03;101059.42;89430;1260;80592;-61
2022/09/07 01:08:04;;;;;;;8.10;3.60;;;;;;;7.95;63.17;101059.28;89410;1261;98125;-59
2022/09/07 01:10:13;;;;;;;5.90;3.80;;;;;;;7.99;63.06;101061.96;89369;1261;87254;-60
2022/09/07 01:12:26;;;;;;;6.90;3.50;;;;;;;8.00;63.14;101065.09;89234;1262;94138;-61
2022/09/07 01:14:45;;;;;;;7.90;3.10;;;;;;;7.98;63.02;101066.51;89217;1262;77951;-59
2022/09/07 01:17:10;;;;;;;6.70;3.20;;;;;;;7.96;63.20;101068.51;89266;1262;82024;-58
2022/09/07 01:20:04;;;;;;;6.70;3.10;;;;;;;7.93;63.01;101070.33;89216;1262;97268;-58
2022/09/07 01:22:42;;;;;;;5.90;2.90;;;;;;;7.91;63.17;101066.05;89174;1262;87437;-62
2022/09/07 01:25:10;;;;;;;6.30;3.00;;;;;;;7.91;63.25;101064.76;89252;1262;94745;-61
2022/09/07 01:28:05;;;;;;;4.80;2.90;;;;;;;7.86;63.34;101063.98;89237;1263;79442;-59
2022/09/07 01:30:24;;;;;;;5.80;3.20;;;;;;;7.75;63.42;101063.88;89207;1263;82912;-58
2022/09/07 01:32:51;;;;;;;5.00;2.80;;;;;;;7.64;63.59;101062.98;89283;1262;97709;-59
2022/09/07 01:35:09;;;;;;;7.00;3.00;;;;;;;7.54;63.79;101061.52;89355;1261;89082;-59
2022/09/07 01:37:28;;;;;;;5.70;3.00;;;;;;;7.48;63.80;101060.85;89246;1262;95186;-58
2022/09/07 01:39:48;;;;;;;5.20;2.60;;;;;;;7.41;63.98;101059.40;89401;1261;80265;-58
2022/09/07 01:42:11;;;;;;;5.60;2.70;;;;;;;7.36;64.17;101060.46;89434;1255;82234;-58
2022/09/07 01:44:25;;;;;;;5.40;2.90;;;;;;;7.33;64.38;101062.22;89423;1260;97302;-59
2022/09/07 01:46:44;;;;;;;5.20;3.00;;;;;;;7.35;64.50;101064.55;89429;1260;88630;-58
2022/09/07 01:49:03;;;;;;;4.70;2.90;;;;;;;7.35;64.59;101062.40;89406;1261;94575;-57
2022/09/07 01:51:20;;;;;;;5.70;3.00;;;;;;;7.39;64.74;101067.40;89411;1260;79591;-59
2022/09/07 01:53:38;;;;;;;5.50;3.00;;;;;;;7.41;64.60;101067.52;89421;1261;81310;-59
2022/09/07 01:55:57;;;;;;;6.30;3.10;;;;;;;7.42;64.77;101066.10;89401;1261;98023;-58
2022/09/07 01:58:18;;;;;;;5.40;3.20;;;;;;;7.37;64.79;101064.50;89416;1260;86994;-56
2022/09/07 02:00:38;;;;;;;6.30;3.00;;;;;;;7.34;64.82;101065.30;89399;1260;93996;-58
2022/09/07 02:02:58;;;;;;;7.00;3.30;;;;;;;7.30;64.95;101063.56;89398;1260;80057;-59
2022/09/07 02:05:18;;;;;;;7.70;3.30;;;;;;;7.24;64.97;101068.90;89379;1261;82282;-59
2022/09/07 02:07:37;;;;;;;5.00;2.90;;;;;;;7.19;65.06;101066.19;89411;1260;97180;-57
2022/09/07 02:09:54;;;;;;;5.20;3.20;;;;;;;7.13;65.18;101070.46;89416;1261;88500;-58
2022/09/07 02:12:15;;;;;;;6.50;3.10;;;;;;;7.10;65.25;101070.05;89458;1265;95656;-61
2022/09/07 02:14:29;;;;;;;5.20;2.70;;;;;;;7.07;65.44;101073.98;89410;1261;80104;-61
2022/09/07 02:16:51;;;;;;;6.10;3.20;;;;;;;7.01;65.57;101070.77;89469;1261;82277;-61
2022/09/07 02:19:08;;;;;;;7.60;3.20;;;;;;;7.00;65.87;101069.98;89451;1260;98363;-61
2022/09/07 02:21:33;;;;;;;5.20;2.80;;;;;;;6.95;65.89;101064.73;89272;1262;88383;-61
2022/09/07 02:23:52;;;;;;;6.30;3.20;;;;;;;6.94;66.17;101062.58;89492;1260;94457;-61
2022/09/07 02:26:19;;;;;;;5.20;3.00;;;;;;;6.94;66.25;101060.70;89391;1261;79891;-58
2022/09/07 02:28:38;;;;;;;4.90;2.80;;;;;;;6.88;66.18;101058.08;89424;1261;81760;-57
2022/09/07 02:30:55;;;;;;;5.50;3.50;;;;;;;6.83;66.46;101059.66;89445;1261;97107;-57
2022/09/07 02:33:13;;;;;;;5.10;3.40;;;;;;;6.75;66.56;101055.30;89484;1259;88422;-61
2022/09/07 02:35:25;;;;;;;6.60;3.20;;;;;;;6.67;66.86;101057.70;89259;1263;93826;-61
2022/09/07 02:37:39;;;;;;;4.60;2.60;;;;;;;6.60;66.91;101053.70;89434;1261;79191;-57
2022/09/07 02:39:56;;;;;;;5.60;2.80;;;;;;;6.54;66.96;101052.64;89383;1261;81316;-57
2022/09/07 02:42:09;;;;;;;5.10;2.50;;;;;;;6.49;67.27;101047.41;89426;1266;97200;-60
2022/09/07 02:44:27;;;;;;;5.80;2.80;;;;;;;6.45;67.35;101044.77;89386;1261;87626;-59
2022/09/07 02:46:56;;;;;;;4.50;3.20;;;;;;;6.45;67.56;101044.27;89378;1260;95065;-57
2022/09/07 02:49:19;;;;;;;6.50;3.20;;;;;;;6.46;67.71;101044.30;89425;1256;81261;-57
2022/09/07 02:51:39;;;;;;;6.20;3.20;;;;;;;6.45;67.87;101045.50;89419;1260;80452;-56
2022/09/07 02:54:07;;;;;;;5.50;3.00;;;;;;;6.44;67.96;101043.61;89388;1260;98120;-57
2022/09/07 02:56:34;;;;;;;4.30;2.80;;;;;;;6.43;68.06;101038.13;89437;1260;88389;-57
2022/09/07 02:58:55;;;;;;;7.30;3.30;;;;;;;6.39;68.14;101037.63;89425;1261;93466;-56
2022/09/07 03:01:14;;;;;;;5.60;3.10;;;;;;;6.32;68.22;101036.37;89256;1263;78146;-59
2022/09/07 03:03:35;;;;;;;4.30;2.40;;;;;;;6.23;68.49;101033.15;89447;1261;82194;-59
2022/09/07 03:05:51;;;;;;;5.20;2.90;;;;;;;6.18;68.22;101032.07;89425;1261;97599;-59
2022/09/07 03:08:07;;;;;;;5.60;2.80;;;;;;;6.11;68.40;101033.54;89435;1260;88784;-59
2022/09/07 03:10:18;;;;;;;6.30;3.60;;;;;;;6.09;68.72;101036.48;89401;1260;95522;-59
2022/09/07 03:12:38;;;;;;;5.00;2.60;;;;;;;6.04;68.78;101036.73;89446;1261;79657;-58
2022/09/07 03:14:47;;;;;;;5.90;3.10;;;;;;;6.02;69.03;101030.13;89436;1256;81541;-58
2022/09/07 03:16:58;;;;;;;4.70;2.90;;;;;;;6.02;68.97;101023.91;89437;1261;99083;-59
2022/09/07 03:19:07;;;;;;;3.80;2.70;;;;;;;5.99;69.24;101025.08;89426;1261;86538;-59
2022/09/07 03:21:16;;;;;;;5.10;2.80;;;;;;;5.97;69.17;101025.80;89380;1261;94585;-59
2022/09/07 03:23:25;;;;;;;4.30;2.60;;;;;;;5.93;69.28;101026.90;89405;1261;79518;-59
2022/09/07 03:25:35;;;;;;;4.60;2.70;;;;;;;5.89;69.35;101028.48;89431;1261;82078;-59
2022/09/07 03:27:44;;;;;;;4.50;2.70;;;;;;;5.85;69.54;101030.68;89440;1260;98531;-61
2022/09/07 03:29:52;;;;;;;4.60;2.70;;;;;;;5.78;69.65;101032.22;89445;1260;86708;-61
2022/09/07 03:32:03;;;;;;;4.60;2.80;;;;;;;5.76;69.75;101035.11;89473;1260;94963;-59
2022/09/07 03:34:12;;;;;;;6.90;2.90;;;;;;;5.79;69.71;101036.97;89435;1260;78481;-59
2022/09/07 03:36:22;;;;;;;7.20;2.80;;;;;;;5.80;69.91;101034.67;89425;1260;83138;-59
2022/09/07 03:38:31;;;;;;;5.00;2.80;;;;;;;5.83;69.78;101028.69;89432;1260;97354;-59
2022/09/07 03:40:41;;;;;;;5.20;3.00;;;;;;;5.89;69.89;101034.25;89465;1260;87986;-59
2022/09/07 03:42:52;;;;;;;4.50;2.80;;;;;;;5.90;70.05;101035.95;89475;1260;95032;-61
2022/09/07 03:45:01;;;;;;;4.50;2.90;;;;;;;5.93;70.03;101035.32;89461;1261;79868;-61
2022/09/07 03:47:14;;;;;;;6.00;2.90;;;;;;;5.93;69.93;101035.59;89500;1260;82050;-61
2022/09/07 03:49:23;;;;;;;6.90;3.10;;;;;;;5.93;70.10;101033.31;89517;1260;97327;-61
2022/09/07 03:51:32;;;;;;;6.40;2.80;;;;;;;5.92;69.94;101034.16;89500;1261;87349;-57
2022/09/07 03:53:44;;;;;;;6.50;3.60;;;;;;;5.91;70.13;101034.21;89422;1260;94422;-57
2022/09/07 03:56:02;;;;;;;7.10;2.90;;;;;;;5.89;70.16;101029.05;89427;1260;81462;-57
2022/09/07 03:58:12;;;;;;;6.60;2.70;;;;;;;5.85;70.18;101032.44;89419;1260;82097;-58
2022/09/07 04:00:25;;;;;;;4.30;2.60;;;;;;;5.85;70.17;101031.92;89409;1261;97711;-55
2022/09/07 04:02:34;;;;;;;6.40;2.80;;;;;;;5.87;70.15;101033.89;89468;1259;88234;-59
2022/09/07 04:04:45;;;;;;;5.20;2.80;;;;;;;5.90;70.24;101033.42;89391;1260;95426;-59
2022/09/07 04:06:56;;;;;;;6.40;3.10;;;;;;;5.96;70.25;101030.91;89433;1260;78805;-57
2022/09/07 04:09:08;;;;;;;5.50;2.70;;;;;;;6.03;70.32;101027.88;89404;1260;82733;-58
2022/09/07 04:11:19;;;;;;;5.90;2.90;;;;;;;6.03;70.46;101029.22;89453;1260;97260;-59
2022/09/07 04:13:29;;;;;;;4.40;2.60;;;;;;;6.01;70.40;101030.14;89190;1263;88285;-59
2022/09/07 04:15:38;;;;;;;5.20;3.10;;;;;;;5.99;70.37;101034.16;89439;1260;93022;-60
2022/09/07 04:17:47;;;;;;;5.60;2.90;;;;;;;5.97;70.53;101037.25;89433;1260;79346;-58
2022/09/07 04:19:56;;;;;;;5.10;2.90;;;;;;;5.93;70.45;101038.00;89442;1260;82166;-58
2022/09/07 04:22:05;;;;;;;4.80;3.00;;;;;;;5.91;70.42;101038.67;89441;1260;98848;-57
2022/09/07 04:24:15;;;;;;;5.50;3.20;;;;;;;5.88;70.61;101036.48;89214;1264;87961;-57
2022/09/07 04:26:26;;;;;;;6.60;3.20;;;;;;;5.88;70.79;101039.35;89195;1262;91971;-60
2022/09/07 04:28:35;;;;;;;6.10;3.00;;;;;;;5.96;70.81;101040.59;89474;1260;80352;-59
2022/09/07 04:30:44;;;;;;;6.10;2.70;;;;;;;6.02;70.90;101044.27;89458;1261;80598;-60
2022/09/07 04:32:53;;;;;;;5.70;2.70;;;;;;;6.06;70.91;101043.73;89457;1260;98294;-61
2022/09/07 04:35:02;;;;;;;6.60;2.60;;;;;;;6.12;70.94;101041.23;89469;1260;87720;-59
2022/09/07 04:37:12;;;;;;;4.10;2.50;;;;;;;6.15;71.03;101042.64;89452;1260;94468;-58
2022/09/07 04:39:21;;;;;;;4.60;2.80;;;;;;;6.21;70.98;101039.59;89432;1261;80551;-59
2022/09/07 04:41:32;;;;;;;5.10;2.90;;;;;;;6.22;70.99;101040.21;89442;1260;82063;-57
2022/09/07 04:43:43;;;;;;;4.40;2.70;;;;;;;6.24;71.18;101043.40;89430;1260;97772;-58
2022/09/07 04:45:55;;;;;;;5.10;2.50;;;;;;;6.28;71.19;101042.65;89442;1260;87077;-56
2022/09/07 04:52:33;;;;;;;6.30;3.00;;;;;;;6.50;71.17;101045.69;89293;1263;80892;-57
2022/09/07 04:54:42;;;;;;;7.00;2.70;;;;;;;6.65;71.34;101045.90;89089;1262;81526;-56
2022/09/07 04:56:51;;;;;;;4.90;3.20;;;;;;;6.74;71.23;101045.73;89132;1262;97504;-61
2022/09/07 04:59:00;;;;;;;5.40;2.90;;;;;;;6.80;71.24;101044.55;89129;1262;87150;-61
2022/09/07 05:01:10;;;;;;;6.10;3.40;;;;;;;6.89;71.44;101044.81;89103;1263;94852;-60
2022/09/07 05:03:20;;;;;;;7.40;3.20;;;;;;;6.98;71.46;101044.57;89126;1262;80287;-56
2022/09/07 05:05:31;;;;;;;7.50;3.10;;;;;;;7.08;71.38;101046.48;89110;1262;81557;-55
2022/09/07 05:07:40;;;;;;;5.90;3.00;;;;;;;7.16;71.43;101046.55;89135;1262;97551;-58
2022/09/07 05:09:53;;;;;;;6.00;3.00;;;;;;;7.24;71.40;101047.02;89136;1263;88515;-59
2022/09/07 05:12:02;;;;;;;6.30;4.10;;;;;;;7.39;71.41;101050.91;89146;1262;94194;-59
2022/09/07 05:14:12;;;;;;;4.70;2.70;;;;;;;7.53;71.28;101052.18;89106;1262;81868;-59
2022/09/07 05:16:23;;;;;;;5.60;2.50;;;;;;;7.68;71.32;101047.17;89112;1262;82771;-59
2022/09/07 05:18:33;;;;;;;6.40;2.90;;;;;;;7.92;71.17;101052.96;89147;1262;97990;-58
2022/09/07 05:20:42;;;;;;;4.00;2.60;;;;;;;8.74;71.75;101056.09;89100;1262;87029;-57
2022/09/07 05:22:58;;;;;;;5.00;2.80;;;;;;;11.08;71.81;101046.27;89117;1263;93980;-58
2022/09/07 05:25:08;;;;;;;3.90;2.70;;;;;;;13.71;69.68;101038.02;89091;1263;79565;-57
2022/09/07 05:27:17;;;;;;;5.00;2.90;;;;;;;15.72;67.54;101030.73;89088;1263;81537;-59
2022/09/07 05:29:30;;;;;;;4.10;2.70;;;;;;;17.51;64.84;101027.23;89068;1263;99904;-59
2022/09/07 05:31:39;;;;;;;5.50;2.80;;;;;;;18.96;61.95;101023.56;89106;1262;87630;-60
2022/09/07 05:33:57;;;;;;;6.00;2.50;;;;;;;20.05;59.44;101026.45;89095;1262;94753;-61
2022/09/07 05:36:09;;;;;;;5.40;3.00;;;;;;;21.32;57.01;101028.40;89085;1263;78235;-61
2022/09/07 05:38:18;;;;;;;5.70;3.00;;;;;;;22.27;54.40;101026.20;89136;1262;82079;-59
2022/09/07 05:40:30;;;;;;;6.40;3.20;;;;;;;22.83;52.02;101023.89;89036;1263;99837;-59
2022/09/07 05:42:41;;;;;;;7.20;3.60;;;;;;;23.08;50.00;101024.95;89149;1263;87619;-59
2022/09/07 05:44:50;;;;;;;5.70;3.50;;;;;;;23.14;48.13;101026.78;89068;1262;94163;-60
2022/09/07 05:46:58;;;;;;;6.00;3.30;;;;;;;22.34;46.80;101028.02;89125;1263;78777;-61
2022/09/07 05:49:10;;;;;;;4.70;3.30;;;;;;;20.94;46.52;101028.35;89098;1262;82948;-60
2022/09/07 05:51:19;;;;;;;4.10;3.20;;;;;;;19.93;46.59;101028.23;89086;1262;99323;-58
2022/09/07 05:53:29;;;;;;;6.70;3.50;;;;;;;20.30;46.25;101026.37;89120;1263;87622;-59
2022/09/07 05:55:38;;;;;;;7.10;3.30;;;;;;;21.88;45.86;101028.58;89101;1263;93303;-60
2022/09/07 05:57:47;;;;;;;6.40;3.60;;;;;;;23.40;45.13;101026.21;89098;1262;80278;-57
2022/09/07 05:59:56;;;;;;;4.80;3.00;;;;;;;24.72;43.94;101021.02;89085;1262;81520;-58
2022/09/07 06:02:04;;;;;;;5.90;3.00;;;;;;;25.83;42.19;101025.61;89116;1262;98401;-61
2022/09/07 06:04:13;;;;;;;4.90;3.10;;;;;;;26.68;40.70;101015.26;89083;1262;86605;-60
2022/09/07 06:06:22;;;;;;;6.20;3.10;;;;;;;27.46;39.81;101014.22;89110;1262;93026;-60
2022/09/07 06:08:31;;;;;;;5.00;3.30;;;;;;;28.15;38.09;101004.77;89091;1262;79333;-60
2022/09/07 06:10:40;;;;;;;6.40;3.00;;;;;;;28.63;36.11;101004.71;89109;1264;81174;-63
2022/09/07 06:12:49;;;;;;;7.40;3.00;;;;;;;28.42;36.00;101005.29;89107;1262;99169;-59
2022/09/07 06:15:01;;;;;;;6.40;3.10;;;;;;;28.16;35.79;101004.20;89079;1262;87767;-58
2022/09/07 06:17:12;;;;;;;3.90;2.50;;;;;;;28.36;34.61;101000.58;89108;1262;94382;-60
2022/09/07 06:19:21;;;;;;;4.90;3.10;;;;;;;28.67;33.91;101001.77;89087;1262;80467;-59
2022/09/07 06:21:30;;;;;;;4.70;2.50;;;;;;;27.75;33.02;101001.21;89077;1262;81875;-62
2022/09/07 06:23:42;;;;;;;5.00;2.70;;;;;;;26.31;33.27;101000.38;89125;1262;99964;-62
2022/09/07 06:25:56;;;;;;;5.00;2.80;;;;;;;25.03;33.93;101000.89;89122;1262;85409;-62
2022/09/07 06:28:09;;;;;;;5.50;2.80;;;;;;;24.19;34.80;100994.78;89101;1263;92692;-60
2022/09/07 06:30:21;;;;;;;6.30;2.50;;;;;;;23.55;34.75;100991.65;89116;1263;78898;-59
2022/09/07 06:32:31;;;;;;;8.10;2.70;;;;;;;22.80;34.76;100989.17;89150;1262;82683;-60
2022/09/07 06:34:39;;;;;;;5.70;2.60;;;;;;;22.47;35.19;100989.46;89144;1262;98340;-61
2022/09/07 06:36:49;;;;;;;7.00;2.70;;;;;;;22.01;34.96;100988.58;89174;1262;89681;-59
2022/09/07 06:39:01;;;;;;;4.90;2.50;;;;;;;21.41;34.97;100990.59;89243;1262;94113;-59
2022/09/07 06:41:17;;;;;;;5.30;2.30;;;;;;;20.81;34.36;100988.84;89169;1262;80362;-59
2022/09/07 06:43:27;;;;;;;3.00;1.70;;;;;;;20.21;34.72;100984.98;89157;1262;82982;-62
2022/09/07 06:45:36;;;;;;;5.40;2.20;;;;;;;19.82;34.69;100981.23;89186;1262;99554;-62
2022/09/07 06:47:44;;;;;;;7.40;2.20;;;;;;;19.52;34.65;100988.11;89146;1262;87647;-62
2022/09/07 06:49:53;;;;;;;4.50;1.90;;;;;;;19.21;35.39;100988.05;89064;1262;94227;-62
2022/09/07 06:52:05;;;;;;;4.70;1.90;;;;;;;19.09;35.76;100989.75;89071;1262;79931;-61
2022/09/07 06:54:14;;;;;;;4.30;2.30;;;;;;;19.15;36.09;100989.64;89111;1263;80776;-62
2022/09/07 06:56:26;;;;;;;7.10;2.10;;;;;;;19.51;36.14;100987.60;89103;1263;98462;-62
2022/09/07 06:58:36;;;;;;;3.20;1.90;;;;;;;19.47;35.82;100986.17;89082;1262;88130;-59
2022/09/07 07:00:47;;;;;;;2.80;1.50;;;;;;;19.58;36.10;100984.92;89144;1262;93913;-57
2022/09/07 07:02:55;;;;;;;3.50;1.80;;;;;;;20.20;35.89;100988.81;89114;1262;76987;-60
2022/09/07 07:05:05;;;;;;;4.80;1.70;;;;;;;20.40;35.32;100985.54;89087;1262;80953;-60
2022/09/07 07:07:17;;;;;;;2.60;1.40;;;;;;;20.66;34.63;100989.70;89100;1262;99414;-61
2022/09/07 07:09:27;;;;;;;4.30;1.50;;;;;;;21.15;33.56;100985.73;89107;1262;86955;-62
2022/09/07 07:11:37;;;;;;;3.60;1.50;;;;;;;21.49;33.56;100993.33;89112;1263;95213;-61
2022/09/07 07:13:47;;;;;;;6.70;2.40;;;;;;;21.69;33.33;100996.58;89145;1262;79722;-60
2022/09/07 07:16:04;;;;;;;8.10;1.80;;;;;;;21.62;33.29;101005.96;89065;1262;81722;-60
2022/09/07 07:18:15;;;;;;;3.60;1.80;;;;;;;21.61;32.73;100998.80;89128;1262;99076;-60
2022/09/07 07:20:24;;;;;;;3.10;1.40;;;;;;;21.65;32.27;100994.90;89170;1262;86462;-59
2022/09/07 07:22:33;;;;;;;2.90;1.40;;;;;;;21.61;31.93;101002.48;89110;1263;93635;-61
2022/09/07 07:24:41;;;;;;;2.50;1.50;;;;;;;21.69;32.55;101016.11;89079;1263;78347;-62
2022/09/07 07:26:53;;;;;;;2.60;1.60;;;;;;;21.69;31.15;101019.89;89137;1263;81613;-61
2022/09/07 07:29:02;;;;;;;2.50;1.20;;;;;;;21.66;31.86;101023.67;89127;1262;99020;-62
2022/09/07 07:31:12;;;;;;;2.00;1.40;;;;;;;22.12;31.88;101021.95;89123;1262;88168;-62
2022/09/07 07:33:21;;;;;;;2.60;1.60;;;;;;;22.34;31.69;101023.45;89151;1262;94590;-60
2022/09/07 07:35:30;;;;;;;4.20;1.60;;;;;;;22.36;31.65;101024.98;89144;1262;79210;-61
2022/09/07 07:37:39;;;;;;;3.50;1.30;;;;;;;22.73;31.55;101028.14;89221;1262;81444;-60
2022/09/07 07:39:49;;;;;;;3.60;1.20;;;;;;;23.95;31.50;101028.12;89098;1262;98703;-60
2022/09/07 07:41:58;;;;;;;2.40;1.30;;;;;;;24.97;29.67;101027.97;89086;1262;88226;-60
2022/09/07 07:44:08;;;;;;;3.20;1.10;;;;;;;25.94;29.51;101021.36;89085;1263;94059;-60
2022/09/07 07:46:21;;;;;;;3.10;1.00;;;;;;;26.80;28.51;101016.02;89116;1262;79791;-60
2022/09/07 07:48:32;;;;;;;3.60;1.10;;;;;;;27.47;28.06;101011.27;89088;1262;82504;-61
2022/09/07 07:50:42;;;;;;;7.90;1.60;;;;;;;28.19;27.17;101011.73;89054;1262;97956;-62
2022/09/07 07:52:53;;;;;;;1.40;0.90;;;;;;;28.66;26.16;101007.73;89074;1262;88776;-58
2022/09/07 07:55:03;;;;;;;3.70;1.20;;;;;;;29.11;24.87;101012.50;88697;1264;503368;-58
2022/09/07 07:57:15;;;;;;;4.80;1.10;;;;;;;29.40;25.07;101010.38;89104;1262;79295;-62
2022/09/07 07:59:26;;;;;;;3.60;0.90;;;;;;;29.56;22.70;101011.20;89143;1262;82881;-61
2022/09/07 08:01:37;;;;;;;2.50;0.90;;;;;;;29.41;23.45;101008.91;89118;1262;97529;-60
2022/09/07 08:03:48;;;;;;;3.20;1.00;;;;;;;29.73;23.08;101006.23;89111;1262;87687;-64
2022/09/07 08:06:04;;;;;;;2.10;1.20;;;;;;;30.04;23.22;101004.36;89079;1262;94445;-61
2022/09/07 08:08:14;;;;;;;1.30;0.70;;;;;;;30.47;22.71;100999.73;89088;1262;80222;-58
2022/09/07 08:10:28;;;;;;;2.60;1.10;;;;;;;30.62;22.78;100989.77;89057;1262;83081;-60
2022/09/07 08:12:40;;;;;;;3.20;0.90;;;;;;;30.73;21.11;100990.30;89139;1262;98137;-61
2022/09/07 08:14:52;;;;;;;2.90;1.10;;;;;;;30.51;20.91;100993.64;89157;1263;88958;-60
2022/09/07 08:17:04;;;;;;;4.50;1.00;;;;;;;30.48;21.30;100987.22;89161;1262;94428;-59
2022/09/07 08:19:17;;;;;;;3.00;1.30;;;;;;;30.70;22.07;100985.62;89080;1262;79436;-60
2022/09/07 08:21:26;;;;;;;3.40;1.00;;;;;;;30.93;22.33;100982.27;89134;1262;81733;-60
2022/09/07 08:23:37;;;;;;;2.50;1.10;;;;;;;31.20;20.82;100976.79;89166;1262;100108;-60
2022/09/07 08:25:57;;;;;;;3.40;1.10;;;;;;;31.36;20.59;100976.83;89114;1262;88758;-61
2022/09/07 08:28:08;;;;;;;1.70;1.20;;;;;;;30.98;20.32;100980.52;89103;1262;92531;-60
2022/09/07 08:30:18;;;;;;;2.10;1.10;;;;;;;31.21;20.58;100978.16;89104;1262;80453;-58
2022/09/07 08:32:29;;;;;;;8.50;1.80;;;;;;;31.19;20.77;100972.06;89116;1262;81688;-60
2022/09/07 08:34:38;;;;;;;2.10;1.20;;;;;;;31.17;20.52;100973.05;89104;1262;99470;-60
2022/09/07 08:36:48;;;;;;;3.50;1.30;;;;;;;31.38;20.14;100972.27;89079;1262;88314;-58
2022/09/07 08:38:58;;;;;;;2.20;1.30;;;;;;;31.39;20.77;100969.98;89054;1264;94064;-57
2022/09/07 08:41:40;;;;;;;5.40;1.20;;;;;;;31.26;20.53;100970.06;89086;1262;78625;-59
2022/09/07 08:43:55;;;;;;;3.20;1.20;;;;;;;31.12;20.46;100963.50;89099;1262;82280;-58
2022/09/07 08:46:14;;;;;;;2.60;1.30;;;;;;;30.97;20.98;100959.92;89054;1262;98317;-58
2022/09/07 08:48:31;;;;;;;3.70;1.20;;;;;;;31.35;21.07;100957.08;89033;1264;88180;-58
2022/09/07 08:50:55;;;;;;;6.60;1.30;;;;;;;31.56;20.74;100953.00;89091;1262;94332;-57
2022/09/07 08:53:08;;;;;;;7.80;1.80;;;;;;;31.61;19.51;100952.31;89129;1262;80187;-62
2022/09/07 08:55:22;;;;;;;6.80;1.80;;;;;;;31.00;19.75;100945.44;89114;1262;83060;-62
2022/09/07 08:57:38;;;;;;;4.00;1.30;;;;;;;30.64;20.21;100947.01;89093;1262;99569;-60
2022/09/07 08:59:58;;;;;;;2.50;1.20;;;;;;;30.75;19.99;100946.91;89104;1262;88103;-60
2022/09/07 09:02:13;;;;;;;2.40;1.40;;;;;;;30.36;19.47;100946.49;89097;1262;95558;-59
2022/09/07 09:04:30;;;;;;;3.20;1.30;;;;;;;30.38;20.13;100942.66;89123;1262;77819;-59
2022/09/07 09:06:47;;;;;;;3.10;1.40;;;;;;;30.55;20.14;100943.80;89170;1262;82584;-60
2022/09/07 09:09:16;;;;;;;2.10;1.10;;;;;;;30.54;20.13;100946.05;89147;1262;99817;-60
2022/09/07 09:11:38;;;;;;;3.80;1.30;;;;;;;30.31;20.26;100938.56;89120;1262;87047;-60
2022/09/07 09:14:02;;;;;;;4.50;1.30;;;;;;;30.40;20.93;100933.16;89050;1262;94352;-58
2022/09/07 09:16:23;;;;;;;6.00;1.10;;;;;;;30.00;19.46;100930.56;89082;1262;79260;-57
2022/09/07 09:18:49;;;;;;;2.00;0.90;;;;;;;29.87;19.55;100929.19;89112;1262;82546;-57
2022/09/07 09:21:01;;;;;;;3.00;0.80;;;;;;;29.65;18.87;100927.40;89091;1262;98444;-57
2022/09/07 09:23:16;;;;;;;6.40;1.40;;;;;;;29.34;19.45;100928.06;89068;1262;88467;-59
2022/09/07 09:25:33;;;;;;;1.70;0.80;;;;;;;28.55;18.70;100927.79;89095;1262;94551;-59
2022/09/07 09:27:43;;;;;;;1.70;1.00;;;;;;;27.74;19.20;100919.53;89092;1262;80543;-59
2022/09/07 09:29:52;;;;;;;2.10;1.30;;;;;;;27.34;19.74;100922.98;89105;1262;81609;-60
2022/09/07 09:32:24;;;;;;;2.40;0.90;;;;;;;27.04;20.59;100914.21;89098;1262;98862;-58
2022/09/07 09:34:33;;;;;;;3.40;1.30;;;;;;;26.79;20.83;100914.66;89076;1262;87896;-57
2022/09/07 09:36:50;;;;;;;3.80;1.20;;;;;;;26.30;21.04;100909.92;89069;1262;95174;-59
2022/09/07 09:39:00;;;;;;;2.70;1.00;;;;;;;25.80;21.32;100914.84;89067;1262;80884;-63
2022/09/07 09:41:12;;;;;;;2.70;1.20;;;;;;;25.21;21.69;100916.90;89118;1262;82120;-61
2022/09/07 09:43:27;;;;;;;3.70;1.00;;;;;;;24.70;22.08;100916.83;89163;1262;98026;-62
2022/09/07 09:45:44;;;;;;;3.10;1.10;;;;;;;24.46;22.43;100920.73;89140;1262;88725;-62
2022/09/07 09:47:55;;;;;;;3.60;1.20;;;;;;;24.24;22.73;100916.47;89146;1262;92872;-60
2022/09/07 09:50:15;;;;;;;2.10;1.10;;;;;;;24.12;23.04;100910.98;89084;1263;79390;-59
2022/09/07 09:52:27;;;;;;;3.30;1.00;;;;;;;24.00;23.39;100907.16;89143;1262;81368;-59
2022/09/07 09:54:41;;;;;;;1.50;0.70;;;;;;;23.49;23.41;100908.90;89126;1262;98667;-61
2022/09/07 09:56:51;;;;;;;2.70;1.10;;;;;;;23.30;23.53;100905.55;89173;1262;88603;-62
2022/09/07 09:59:14;;;;;;;3.50;1.30;;;;;;;23.14;24.17;100898.34;89122;1262;93714;-62
2022/09/07 10:01:33;;;;;;;2.20;1.10;;;;;;;23.00;24.49;100893.05;89119;1262;79300;-62
2022/09/07 10:03:42;;;;;;;2.00;0.90;;;;;;;22.83;24.73;100896.21;89131;1262;82521;-60
2022/09/07 10:05:52;;;;;;;2.70;1.10;;;;;;;22.66;24.88;100899.80;89101;1262;99258;-62
2022/09/07 10:08:01;;;;;;;3.80;0.80;;;;;;;22.52;25.03;100903.06;89081;1262;88943;-60
2022/09/07 10:10:19;;;;;;;2.80;0.90;;;;;;;22.25;25.41;100895.05;89075;1262;94361;-60
2022/09/07 10:12:33;;;;;;;2.30;0.90;;;;;;;22.42;25.71;100897.88;89069;1262;79388;-63
2022/09/07 10:14:47;;;;;;;4.50;1.40;;;;;;;22.29;25.36;100898.58;89102;1262;81526;-62
2022/09/07 10:16:56;;;;;;;2.00;0.90;;;;;;;21.98;25.13;100894.27;89091;1262;99355;-60
2022/09/07 10:19:05;;;;;;;3.20;0.90;;;;;;;21.97;25.35;100892.52;89087;1262;87866;-60
2022/09/07 10:21:27;;;;;;;5.10;1.00;;;;;;;21.96;25.33;100897.02;89078;1262;94503;-59
2022/09/07 10:23:39;;;;;;;2.80;1.10;;;;;;;22.07;25.55;100895.22;89105;1262;79348;-59
2022/09/07 10:25:50;;;;;;;3.70;1.00;;;;;;;22.03;25.23;100894.78;89106;1262;82702;-59
2022/09/07 10:28:17;;;;;;;2.20;0.90;;;;;;;22.00;25.49;100889.95;89118;1263;98898;-59
2022/09/07 10:30:25;;;;;;;3.20;1.20;;;;;;;22.23;26.06;100892.05;89122;1262;88891;-58